createdAt,value
2023-05-21T00:02:25.814Z,15.07
2023-05-21T00:07:27.584Z,15.05
2023-05-21T00:12:29.279Z,15.06
2023-05-21T00:17:32.379Z,15.03
2023-05-21T00:22:34.168Z,15.02
2023-05-21T00:27:35.926Z,15.02
2023-05-21T00:32:38.983Z,14.99
2023-05-21T00:37:40.750Z,15.02
2023-05-21T00:42:42.472Z,15.00
2023-05-21T00:47:45.974Z,14.92
2023-05-21T00:52:47.913Z,14.93
2023-05-21T00:57:49.629Z,14.85
2023-05-21T01:02:52.795Z,14.89
2023-05-21T01:07:55.989Z,14.86
2023-05-21T01:12:59.573Z,14.83
2023-05-21T01:18:02.745Z,14.83
2023-05-21T01:23:06.276Z,14.82
2023-05-21T01:28:08.122Z,14.80
2023-05-21T01:33:17.137Z,14.78
2023-05-21T01:38:24.734Z,14.75
2023-05-21T01:43:29.304Z,14.77
2023-05-21T01:48:31.588Z,14.75
2023-05-21T01:53:35.106Z,14.76
2023-05-21T01:58:36.987Z,14.77
2023-05-21T02:03:38.907Z,14.74
2023-05-21T02:08:42.016Z,14.75
2023-05-21T02:13:43.721Z,14.76
2023-05-21T02:18:45.467Z,14.76
2023-05-21T02:23:48.852Z,14.75
2023-05-21T02:28:50.522Z,14.73
2023-05-21T02:33:52.185Z,14.72
2023-05-21T02:38:55.190Z,14.67
2023-05-21T02:43:56.867Z,14.67
2023-05-21T02:48:58.562Z,14.66
2023-05-21T02:54:01.639Z,14.65
2023-05-21T02:59:03.300Z,14.66
2023-05-21T03:04:04.932Z,14.60
2023-05-21T03:09:08.013Z,14.66
2023-05-21T03:14:09.724Z,14.69
2023-05-21T03:19:12.190Z,14.70
2023-05-21T03:24:15.361Z,14.70
2023-05-21T03:29:17.092Z,14.70
2023-05-21T03:34:18.750Z,14.70
2023-05-21T03:39:21.858Z,14.69
2023-05-21T03:44:23.550Z,14.70
2023-05-21T03:49:25.313Z,14.73
2023-05-21T03:54:28.337Z,14.73
2023-05-21T03:59:30.091Z,14.73
2023-05-21T04:04:31.791Z,14.74
2023-05-21T04:09:36.591Z,14.73
2023-05-21T04:14:39.106Z,14.75
2023-05-21T04:19:41.020Z,14.77
2023-05-21T04:24:44.138Z,14.76
2023-05-21T04:29:45.856Z,14.76
2023-05-21T04:34:47.587Z,14.76
2023-05-21T04:39:50.685Z,14.76
2023-05-21T04:44:52.467Z,14.76
2023-05-21T04:49:54.169Z,14.79
2023-05-21T04:54:57.282Z,14.78
2023-05-21T04:59:58.938Z,14.81
2023-05-21T05:05:00.602Z,14.84
2023-05-21T05:10:04.326Z,14.85
2023-05-21T05:15:07.042Z,14.88
2023-05-21T05:20:10.618Z,14.89
2023-05-21T05:25:13.714Z,14.93
2023-05-21T05:30:15.427Z,14.99
2023-05-21T05:35:17.101Z,15.16
2023-05-21T05:40:20.230Z,15.26
2023-05-21T05:45:21.908Z,15.42
2023-05-21T05:50:23.594Z,15.65
2023-05-21T05:55:26.859Z,15.85
2023-05-21T06:00:28.678Z,16.07
2023-05-21T06:05:30.448Z,16.06
2023-05-21T06:11:12.722Z,15.95
2023-05-21T06:22:01.028Z,15.98
2023-05-21T06:27:08.660Z,15.87
2023-05-21T06:32:20.781Z,15.88
2023-05-21T06:37:26.662Z,15.80
2023-05-21T06:43:05.806Z,15.78
2023-05-21T06:48:15.820Z,15.73
2023-05-21T06:53:26.394Z,15.68
2023-05-21T07:04:35.300Z,15.71
2023-05-21T07:09:43.195Z,15.83
2023-05-21T07:15:10.915Z,15.88
2023-05-21T07:20:19.873Z,15.89
2023-05-21T07:25:52.755Z,15.99
2023-05-21T07:43:09.029Z,16.54
2023-05-21T07:58:50.425Z,17.09
2023-05-21T08:10:31.544Z,17.14
2023-05-21T08:15:40.432Z,17.42
2023-05-21T08:21:05.972Z,17.33
2023-05-21T08:27:05.959Z,17.17
2023-05-21T08:33:11.716Z,17.12
2023-05-21T08:38:24.976Z,17.18
2023-05-21T08:43:33.504Z,17.01
2023-05-21T08:48:42.883Z,17.03
2023-05-21T08:53:46.032Z,16.88
2023-05-21T08:59:25.053Z,17.05
2023-05-21T09:04:36.511Z,17.22
2023-05-21T09:15:29.996Z,17.07
2023-05-21T09:38:51.113Z,17.25
2023-05-21T09:43:53.569Z,17.08
2023-05-21T09:55:06.816Z,17.33
2023-05-21T10:00:19.050Z,17.29
2023-05-21T10:05:21.085Z,17.15
2023-05-21T10:16:37.082Z,17.48
2023-05-21T10:21:52.880Z,17.62
2023-05-21T10:26:58.041Z,17.57
2023-05-21T10:32:43.304Z,17.50
2023-05-21T10:56:01.125Z,17.49
2023-05-21T11:13:17.174Z,17.77
2023-05-21T11:19:03.110Z,17.62
2023-05-21T11:24:08.096Z,17.65
2023-05-21T11:30:14.123Z,17.67
2023-05-21T11:35:24.104Z,17.86
2023-05-21T11:40:35.468Z,17.76
2023-05-21T11:46:09.935Z,17.81
2023-05-21T11:51:22.481Z,17.63
2023-05-21T11:56:37.227Z,17.98
2023-05-21T12:02:15.585Z,17.79
2023-05-21T12:14:27.470Z,18.33
2023-05-21T12:19:45.155Z,17.99
2023-05-21T12:25:24.004Z,18.31
2023-05-21T12:30:26.036Z,18.18
2023-05-21T12:35:34.976Z,18.01
2023-05-21T12:40:40.334Z,17.90
2023-05-21T12:45:48.434Z,17.87
2023-05-21T12:50:55.543Z,17.92
2023-05-21T13:02:14.477Z,17.83
2023-05-21T13:07:56.082Z,17.92
2023-05-21T13:18:38.217Z,18.08
2023-05-21T13:23:47.357Z,17.92
2023-05-21T13:28:51.996Z,17.84
2023-05-21T13:34:01.733Z,17.79
2023-05-21T13:50:36.597Z,18.10
2023-05-21T13:55:41.186Z,17.79
2023-05-21T14:07:26.413Z,17.79
2023-05-21T14:18:42.653Z,17.80
2023-05-21T14:23:45.850Z,17.77
2023-05-21T14:28:50.578Z,17.70
2023-05-21T14:33:52.391Z,17.72
2023-05-21T14:39:10.541Z,17.72
2023-05-21T14:44:39.506Z,17.72
2023-05-21T14:49:47.858Z,17.79
2023-05-21T14:55:29.320Z,17.66
2023-05-21T15:00:47.810Z,17.95
2023-05-21T15:05:56.083Z,17.78
2023-05-21T15:11:03.880Z,17.67
2023-05-21T15:16:37.773Z,17.66
2023-05-21T15:22:20.288Z,17.67
2023-05-21T15:27:27.808Z,17.73
2023-05-21T15:32:46.002Z,17.92
2023-05-21T15:44:23.698Z,17.74
2023-05-21T15:54:39.510Z,17.73
2023-05-21T16:01:03.160Z,17.97
2023-05-21T16:06:06.310Z,17.86
2023-05-21T16:11:07.992Z,18.03
2023-05-21T16:16:28.288Z,17.86
2023-05-21T16:22:14.316Z,17.85
2023-05-21T16:27:54.426Z,17.83
2023-05-21T16:33:02.203Z,17.83
2023-05-21T16:38:31.982Z,17.81
2023-05-21T16:49:46.272Z,17.96
2023-05-21T16:55:02.984Z,17.80
2023-05-21T17:00:22.466Z,17.78
2023-05-21T17:05:51.317Z,17.69
2023-05-21T17:11:13.318Z,17.72
2023-05-21T17:16:16.429Z,17.70
2023-05-21T17:27:30.677Z,17.56
2023-05-21T17:32:34.457Z,17.50
2023-05-21T17:37:42.257Z,17.48
2023-05-21T17:43:50.170Z,17.45
2023-05-21T17:49:18.268Z,17.44
2023-05-21T17:54:20.205Z,17.37
2023-05-21T18:04:50.307Z,17.31
2023-05-21T18:09:55.018Z,17.26
2023-05-21T18:15:27.272Z,17.22
2023-05-21T18:20:54.860Z,17.21
2023-05-21T18:32:36.342Z,17.15
2023-05-21T18:38:06.054Z,17.13
2023-05-21T18:43:53.274Z,17.11
2023-05-21T18:48:55.037Z,17.10
2023-05-21T18:53:58.183Z,17.06
2023-05-21T18:59:00.165Z,17.04
2023-05-21T19:04:01.978Z,17.04
2023-05-21T19:09:05.088Z,16.99
2023-05-21T19:14:06.747Z,16.99
2023-05-21T19:19:08.521Z,16.97
2023-05-21T19:24:11.735Z,16.95
2023-05-21T19:29:13.521Z,16.93
2023-05-21T19:34:15.465Z,16.95
2023-05-21T19:39:18.584Z,16.93
2023-05-21T19:44:20.303Z,16.92
2023-05-21T19:49:22.130Z,16.90
2023-05-21T19:54:25.618Z,16.90
2023-05-21T19:59:27.392Z,16.88
2023-05-21T20:04:29.106Z,16.88
2023-05-21T20:09:32.867Z,16.87
2023-05-21T20:14:34.580Z,16.87
2023-05-21T20:19:36.321Z,16.88
2023-05-21T20:24:39.417Z,16.89
2023-05-21T20:29:41.100Z,16.87
2023-05-21T20:34:58.327Z,16.86
2023-05-21T20:40:06.049Z,16.87
2023-05-21T20:45:08.765Z,16.85
2023-05-21T20:50:11.534Z,16.83
2023-05-21T20:55:14.931Z,16.83
2023-05-21T21:00:17.050Z,16.81
2023-05-21T21:05:18.705Z,16.81
2023-05-21T21:10:21.848Z,16.79
2023-05-21T21:15:23.685Z,16.78
2023-05-21T21:20:25.331Z,16.78
2023-05-21T21:25:28.915Z,16.76
2023-05-21T21:30:30.658Z,16.74
2023-05-21T21:35:32.390Z,16.73
2023-05-21T21:40:35.530Z,16.72
2023-05-21T21:45:37.262Z,16.70
2023-05-21T21:50:39.083Z,16.68
2023-05-21T21:55:42.387Z,16.64
2023-05-21T22:00:44.175Z,16.63
2023-05-21T22:05:45.938Z,16.60
2023-05-21T22:10:48.975Z,16.60
2023-05-21T22:15:50.636Z,16.57
2023-05-21T22:20:52.315Z,16.56
2023-05-21T22:25:55.451Z,16.52
2023-05-21T22:30:57.236Z,16.52
2023-05-21T22:35:58.965Z,16.50
2023-05-21T22:41:02.194Z,16.48
2023-05-21T22:46:04.049Z,16.46
2023-05-21T22:51:05.791Z,16.42
2023-05-21T22:56:08.870Z,16.42
2023-05-21T23:01:10.708Z,16.39
2023-05-21T23:06:12.403Z,16.38
2023-05-21T23:11:15.496Z,16.33
2023-05-21T23:16:17.285Z,16.33
2023-05-21T23:21:19.039Z,16.30
2023-05-21T23:26:22.123Z,16.29
2023-05-21T23:31:23.936Z,16.27
2023-05-21T23:36:26.331Z,16.24
2023-05-21T23:41:29.456Z,16.21
2023-05-21T23:46:31.249Z,16.19
2023-05-21T23:51:32.968Z,16.16
2023-05-21T23:56:36.084Z,16.13
